createdAt,value
2023-05-14T00:03:08.918Z,1010.099
2023-05-14T00:23:07.857Z,1009.997
2023-05-14T00:43:07.631Z,1009.842
2023-05-14T01:03:08.957Z,1009.696
2023-05-14T01:23:08.013Z,1009.585
2023-05-14T01:43:07.909Z,1009.489
2023-05-14T02:03:09.216Z,1009.356
2023-05-14T02:23:08.108Z,1009.296
2023-05-14T02:43:07.809Z,1009.256
2023-05-14T03:03:08.930Z,1009.242
2023-05-14T03:23:07.250Z,1009.159
2023-05-14T03:43:08.148Z,1009.192
2023-05-14T04:03:09.194Z,1009.182
2023-05-14T04:23:08.076Z,1009.193
2023-05-14T04:43:08.012Z,1009.084
2023-05-14T05:03:08.827Z,1009.123
2023-05-14T05:23:07.722Z,1009.144
2023-05-14T05:43:07.708Z,1009.121
2023-05-14T06:03:08.702Z,1009.159
2023-05-14T06:23:07.480Z,1009.209
2023-05-14T06:43:07.395Z,1009.2
2023-05-14T07:03:08.446Z,1009.121
2023-05-14T07:23:07.362Z,1009.146
2023-05-14T07:43:07.400Z,1009.005
2023-05-14T08:03:08.698Z,1008.829
2023-05-14T08:23:07.835Z,1008.788
2023-05-14T08:43:07.888Z,1008.732
2023-05-14T09:03:09.319Z,1008.634
2023-05-14T09:23:07.266Z,1008.601
2023-05-14T09:43:07.312Z,1008.512
2023-05-14T10:03:08.444Z,1008.248
2023-05-14T10:23:07.530Z,1008.176
2023-05-14T10:43:07.388Z,1007.924
2023-05-14T11:03:08.610Z,1007.696
2023-05-14T11:23:07.438Z,1007.461
2023-05-14T11:43:07.463Z,1007.373
2023-05-14T12:03:08.620Z,1007.305
2023-05-14T12:23:07.473Z,1007.393
2023-05-14T12:43:07.349Z,1007.105
2023-05-14T13:03:08.724Z,1006.854
2023-05-14T13:23:07.561Z,1006.633
2023-05-14T13:43:07.434Z,1006.453
2023-05-14T14:03:08.789Z,1006.168
2023-05-14T14:23:07.673Z,1006.057
2023-05-14T14:43:07.750Z,1005.922
2023-05-14T15:03:09.144Z,1006.149
2023-05-14T15:23:08.164Z,1006.012
2023-05-14T15:43:08.142Z,1005.889
2023-05-14T16:03:09.391Z,1005.623
2023-05-14T16:23:07.336Z,1005.459
2023-05-14T16:43:07.314Z,1005.309
2023-05-14T17:03:08.530Z,1005.318
2023-05-14T17:23:07.654Z,1005.317
2023-05-14T17:43:07.621Z,1005.357
2023-05-14T18:03:09.113Z,1005.393
2023-05-14T18:23:07.969Z,1005.492
2023-05-14T18:43:08.056Z,1005.629
2023-05-14T19:03:09.510Z,1005.729
2023-05-14T19:23:07.378Z,1005.838
2023-05-14T19:43:07.563Z,1005.705
2023-05-14T20:03:09.013Z,1005.544
2023-05-14T20:23:07.969Z,1005.399
2023-05-14T20:43:08.066Z,1005.331
2023-05-14T21:03:10.034Z,1005.384
2023-05-14T21:23:08.273Z,1005.352
2023-05-14T21:43:07.341Z,1005.14
2023-05-14T22:03:08.921Z,1005.129
2023-05-14T22:23:07.644Z,1005.045
2023-05-14T22:43:07.383Z,1004.973
2023-05-14T23:03:08.475Z,1004.81
2023-05-14T23:23:07.492Z,1004.658
2023-05-14T23:43:07.230Z,1004.56
